Time;durP1;ratioP1;P1;durP2;ratioP2;P2;SDS_P1;SDS_P2;PMS_P1;PMS_P2;Temp;Humidity;BMP_temperature;BMP_pressure;BME280_temperature;BME280_humidity;BME280_pressure;Samples;Min_cycle;Max_cycle;Signal;HPM_P1;HPM_P2
2021/05/30 00:02:07;;;;;;;14.77;8.93;;;;;;;15.93;61.80;102111.63;4424781;32;20437;-74
2021/05/30 00:04:33;;;;;;;18.42;9.93;;;;;;;15.69;62.36;102107.34;4427218;32;20053;-73
2021/05/30 00:06:59;;;;;;;15.43;9.05;;;;;;;15.55;63.09;102094.28;4427833;32;20065;-74
2021/05/30 00:09:24;;;;;;;13.32;8.98;;;;;;;15.51;63.29;102110.59;4429599;32;20057;-73
2021/05/30 00:11:50;;;;;;;14.07;9.27;;;;;;;15.42;63.61;102104.72;4424318;32;20045;-74
2021/05/30 00:14:17;;;;;;;13.43;9.18;;;;;;;15.38;63.49;102100.34;4417445;32;20072;-74
2021/05/30 00:16:43;;;;;;;17.92;9.18;;;;;;;15.39;63.70;102101.94;4413748;32;20077;-74
2021/05/30 00:19:09;;;;;;;15.73;9.80;;;;;;;15.32;63.77;102113.41;4425081;32;20058;-74
2021/05/30 00:21:34;;;;;;;19.10;10.68;;;;;;;15.34;63.61;102100.38;4411415;32;20132;-74
2021/05/30 00:24:00;;;;;;;23.20;13.98;;;;;;;15.32;63.58;102111.41;4420706;32;20080;-74
2021/05/30 00:26:26;;;;;;;17.20;10.25;;;;;;;15.24;63.83;102103.47;4416697;32;20524;-74
2021/05/30 00:28:52;;;;;;;19.52;9.98;;;;;;;15.13;64.72;102106.50;4423672;32;20428;-74
2021/05/30 00:31:18;;;;;;;23.02;11.20;;;;;;;15.08;64.87;102104.22;4419077;32;20458;-74
2021/05/30 00:33:45;;;;;;;25.08;12.35;;;;;;;15.00;65.00;102101.97;4424585;32;20471;-73
2021/05/30 00:36:12;;;;;;;23.83;11.90;;;;;;;14.96;65.36;102098.37;4417549;32;20485;-73
2021/05/30 00:38:38;;;;;;;22.50;11.40;;;;;;;14.93;65.39;102105.72;4424641;32;20058;-73
2021/05/30 00:41:04;;;;;;;21.70;12.30;;;;;;;14.90;65.62;102105.78;4416572;32;20084;-73
2021/05/30 00:43:29;;;;;;;20.42;11.35;;;;;;;14.89;65.50;102107.03;4427692;32;20107;-73
2021/05/30 00:45:56;;;;;;;17.27;10.65;;;;;;;14.79;65.98;102105.22;4423061;32;20049;-73
2021/05/30 00:48:21;;;;;;;18.90;10.00;;;;;;;14.66;66.40;102102.22;4426277;32;20086;-73
2021/05/30 00:50:47;;;;;;;16.12;8.68;;;;;;;14.62;66.66;102114.84;4423307;32;20464;-73
2021/05/30 00:53:18;;;;;;;17.00;8.90;;;;;;;14.62;66.47;102101.50;4427416;32;20505;-73
2021/05/30 00:55:44;;;;;;;14.43;8.57;;;;;;;14.63;66.26;102103.09;4426365;32;20042;-73
2021/05/30 00:58:10;;;;;;;16.00;9.15;;;;;;;14.56;66.49;102108.06;4417696;32;20511;-73
2021/05/30 01:00:35;;;;;;;15.55;9.55;;;;;;;14.53;66.69;102104.09;4424714;32;20049;-73
2021/05/30 01:03:01;;;;;;;12.82;9.10;;;;;;;14.48;66.99;102104.56;4412355;32;20124;-73
2021/05/30 01:05:27;;;;;;;16.83;10.07;;;;;;;14.44;66.83;102103.84;4427915;32;20083;-73
2021/05/30 01:07:52;;;;;;;18.02;9.38;;;;;;;14.35;67.27;102108.47;4422772;32;20400;-73
2021/05/30 01:10:36;;;;;;;12.55;8.13;;;;;;;14.34;67.33;102106.88;4427393;32;20046;-73
2021/05/30 01:13:04;;;;;;;14.00;9.23;;;;;;;14.27;67.35;102115.50;4414155;32;20122;-73
2021/05/30 01:15:32;;;;;;;12.77;7.60;;;;;;;14.14;67.78;102120.16;4424173;32;20125;-73
2021/05/30 01:17:58;;;;;;;11.20;7.43;;;;;;;14.08;67.51;102111.31;4427468;32;20097;-73
2021/05/30 01:20:25;;;;;;;12.15;8.20;;;;;;;14.07;67.42;102116.19;4415391;32;20038;-74
2021/05/30 01:22:52;;;;;;;14.07;7.57;;;;;;;14.00;67.52;102112.69;4411799;32;20045;-73
2021/05/30 01:25:20;;;;;;;12.73;8.38;;;;;;;14.09;66.75;102119.38;4420747;32;20106;-73
2021/05/30 01:27:48;;;;;;;14.63;7.93;;;;;;;14.04;66.90;102125.56;4427385;32;20177;-73
2021/05/30 01:30:15;;;;;;;13.82;7.62;;;;;;;13.93;66.89;102127.75;4427766;32;20111;-73
2021/05/30 01:32:43;;;;;;;11.75;6.75;;;;;;;13.95;66.81;102118.81;4424982;32;20060;-73
2021/05/30 01:35:09;;;;;;;12.73;6.80;;;;;;;13.89;66.81;102124.16;4425727;32;20033;-73
2021/05/30 01:37:35;;;;;;;16.87;7.40;;;;;;;13.88;66.69;102118.94;4426383;32;20176;-73
2021/05/30 01:40:01;;;;;;;13.43;7.70;;;;;;;13.72;66.87;102116.75;4428011;32;20070;-73
2021/05/30 01:42:27;;;;;;;13.35;7.68;;;;;;;13.77;66.34;102115.47;4421277;32;20095;-73
2021/05/30 01:44:53;;;;;;;15.40;8.32;;;;;;;13.72;66.51;102113.91;4426569;32;20045;-73
2021/05/30 01:47:18;;;;;;;12.90;8.30;;;;;;;13.66;66.83;102128.97;4427957;32;20049;-73
2021/05/30 01:49:44;;;;;;;14.30;7.78;;;;;;;13.63;66.83;102121.34;4428318;32;20402;-73
2021/05/30 01:52:10;;;;;;;12.95;7.60;;;;;;;13.54;66.87;102124.72;4422833;32;20661;-73
2021/05/30 01:54:40;;;;;;;11.15;7.37;;;;;;;13.42;67.25;102125.28;4424882;32;20041;-73
2021/05/30 01:57:09;;;;;;;12.20;7.62;;;;;;;13.45;67.17;102126.44;4426927;32;20041;-73
2021/05/30 01:59:36;;;;;;;12.98;7.65;;;;;;;13.47;67.18;102126.84;4424607;32;20046;-73
2021/05/30 02:02:02;;;;;;;12.13;7.32;;;;;;;13.40;67.43;102136.22;4419960;32;20489;-73
2021/05/30 02:04:44;;;;;;;13.62;8.48;;;;;;;13.40;67.55;102135.41;4415842;32;20049;-73
2021/05/30 02:07:12;;;;;;;13.75;7.70;;;;;;;13.28;68.02;102128.28;4416303;32;20355;-73
2021/05/30 02:09:38;;;;;;;17.90;8.25;;;;;;;13.23;68.12;102134.41;4416922;32;20079;-73
2021/05/30 02:12:05;;;;;;;11.80;7.10;;;;;;;13.21;68.27;102130.41;4423781;32;20075;-73
2021/05/30 02:14:31;;;;;;;12.75;8.02;;;;;;;13.18;68.41;102126.41;4427566;32;20118;-74
2021/05/30 02:16:57;;;;;;;11.98;7.72;;;;;;;13.14;68.48;102139.78;4425598;32;20070;-73
2021/05/30 02:19:23;;;;;;;14.45;8.13;;;;;;;13.17;68.29;102124.00;4412704;32;20025;-73
2021/05/30 02:21:50;;;;;;;16.00;8.30;;;;;;;13.13;68.52;102126.88;4420094;32;20052;-73
2021/05/30 02:24:19;;;;;;;13.82;7.57;;;;;;;13.09;68.70;102122.47;4426519;32;20402;-74
2021/05/30 02:26:45;;;;;;;15.75;8.40;;;;;;;13.11;68.51;102120.84;4421028;32;20103;-73
2021/05/30 02:29:35;;;;;;;14.38;8.00;;;;;;;13.04;68.70;102122.97;4426923;32;20076;-73
2021/05/30 02:32:03;;;;;;;14.80;7.28;;;;;;;12.94;68.71;102121.81;4418615;32;20110;-74
2021/05/30 02:34:29;;;;;;;10.15;6.43;;;;;;;12.96;68.59;102118.56;4418911;32;20054;-73
2021/05/30 02:36:55;;;;;;;12.05;7.07;;;;;;;12.78;68.94;102121.59;4412265;32;20084;-73
2021/05/30 02:39:21;;;;;;;13.77;7.05;;;;;;;12.82;68.78;102115.94;4411104;32;20113;-74
2021/05/30 02:41:48;;;;;;;16.60;8.02;;;;;;;12.83;68.69;102123.16;4414883;32;20075;-74
2021/05/30 02:44:14;;;;;;;12.35;7.28;;;;;;;12.77;68.87;102120.00;4426112;32;20540;-74
2021/05/30 02:46:39;;;;;;;14.45;7.40;;;;;;;12.67;69.08;102120.12;4415273;32;20489;-73
2021/05/30 02:49:05;;;;;;;10.60;6.93;;;;;;;12.67;68.99;102122.94;4421860;32;20106;-73
2021/05/30 02:51:32;;;;;;;11.52;6.65;;;;;;;12.72;68.80;102119.66;4410781;32;20117;-73
2021/05/30 02:53:58;;;;;;;14.13;6.40;;;;;;;12.65;68.80;102117.72;4411852;32;20041;-73
2021/05/30 02:56:24;;;;;;;15.18;6.70;;;;;;;12.56;69.04;102114.59;4425784;32;20110;-74
2021/05/30 02:58:51;;;;;;;13.05;6.47;;;;;;;12.56;68.74;102123.06;4428234;32;20049;-74
2021/05/30 03:01:17;;;;;;;15.40;6.68;;;;;;;12.56;68.67;102119.44;4424727;32;20125;-73
2021/05/30 03:03:43;;;;;;;11.65;6.15;;;;;;;12.50;68.69;102121.09;4424365;32;20122;-73
2021/05/30 03:06:09;;;;;;;10.02;6.75;;;;;;;12.44;68.83;102119.94;4417183;32;20049;-73
2021/05/30 03:08:34;;;;;;;15.63;6.57;;;;;;;12.43;68.83;102119.16;4426334;32;20484;-73
2021/05/30 03:11:00;;;;;;;10.88;6.75;;;;;;;12.37;69.25;102114.38;4428186;32;20056;-74
2021/05/30 03:13:26;;;;;;;15.38;6.37;;;;;;;12.30;69.29;102117.28;4421673;32;20374;-74
2021/05/30 03:15:52;;;;;;;14.43;6.30;;;;;;;12.25;69.53;102121.34;4414397;32;20125;-74
2021/05/30 03:18:18;;;;;;;11.70;5.93;;;;;;;12.24;69.18;102108.44;4425080;32;20062;-73
2021/05/30 03:20:44;;;;;;;11.85;5.95;;;;;;;12.19;69.31;102123.00;4414952;32;20057;-73
2021/05/30 03:23:10;;;;;;;10.77;5.97;;;;;;;12.13;69.36;102119.03;4417759;32;20086;-73
2021/05/30 03:25:36;;;;;;;10.45;6.05;;;;;;;12.16;69.21;102118.19;4413188;32;20066;-74
2021/05/30 03:28:03;;;;;;;10.50;6.10;;;;;;;12.13;69.23;102119.81;4421955;32;20089;-73
2021/05/30 03:30:30;;;;;;;12.35;6.55;;;;;;;12.12;69.51;102123.03;4424569;32;20137;-73
2021/05/30 03:32:56;;;;;;;10.77;6.47;;;;;;;12.07;69.72;102115.03;4422208;32;20057;-73
2021/05/30 03:35:22;;;;;;;13.77;6.72;;;;;;;12.03;69.47;102119.94;4426444;32;20162;-73
2021/05/30 03:37:48;;;;;;;11.50;6.37;;;;;;;12.02;69.14;102115.47;4429946;32;20103;-73
2021/05/30 03:40:27;;;;;;;10.05;6.40;;;;;;;11.93;69.15;102115.16;4418285;32;20098;-74
2021/05/30 03:42:53;;;;;;;10.63;5.68;;;;;;;11.97;69.00;102113.12;4419493;32;20079;-73
2021/05/30 03:45:22;;;;;;;11.38;5.50;;;;;;;11.81;68.74;102112.81;4428319;32;20441;-73
2021/05/30 03:47:49;;;;;;;12.37;5.90;;;;;;;11.91;68.36;102111.97;4429892;32;20101;-73
2021/05/30 03:50:17;;;;;;;11.20;5.90;;;;;;;11.89;68.56;102120.03;4423744;32;20412;-73
2021/05/30 03:52:43;;;;;;;12.32;5.95;;;;;;;11.81;68.98;102112.81;4421952;32;20093;-73
2021/05/30 03:55:10;;;;;;;11.77;6.12;;;;;;;11.86;68.82;102116.03;4415851;32;20092;-75
2021/05/30 03:57:36;;;;;;;11.23;6.20;;;;;;;11.87;69.10;102120.44;4413856;32;20054;-73
2021/05/30 04:00:08;;;;;;;8.77;5.55;;;;;;;11.81;69.15;102119.28;4414719;32;20061;-73
2021/05/30 04:02:35;;;;;;;9.65;6.10;;;;;;;11.87;68.73;102122.44;4412765;32;20092;-73
2021/05/30 04:05:00;;;;;;;10.65;5.40;;;;;;;11.82;68.63;102125.72;4427154;32;20095;-73
2021/05/30 04:07:27;;;;;;;9.65;6.30;;;;;;;11.79;68.74;102118.09;4427299;32;20061;-74
2021/05/30 04:09:53;;;;;;;10.20;5.78;;;;;;;11.81;68.72;102121.28;4422760;32;20053;-73
2021/05/30 04:12:18;;;;;;;9.85;5.78;;;;;;;11.84;68.61;102120.44;4425096;32;20135;-73
2021/05/30 04:14:44;;;;;;;8.52;6.00;;;;;;;11.93;68.40;102120.78;4417154;32;20427;-73
2021/05/30 04:17:10;;;;;;;9.63;6.07;;;;;;;11.77;69.25;102123.34;4412599;32;20081;-73
2021/05/30 04:19:36;;;;;;;8.45;5.97;;;;;;;11.82;69.03;102122.91;4417190;32;20048;-73
2021/05/30 04:22:02;;;;;;;11.20;5.60;;;;;;;11.86;69.04;102127.31;4425269;32;20080;-73
2021/05/30 04:24:28;;;;;;;13.77;5.95;;;;;;;11.89;69.09;102131.31;4428748;32;20080;-73
2021/05/30 04:26:54;;;;;;;14.75;6.07;;;;;;;11.89;69.02;102136.94;4428865;32;20113;-73
2021/05/30 04:29:20;;;;;;;12.93;6.53;;;;;;;11.93;68.55;102137.72;4421145;32;20117;-73
2021/05/30 04:31:45;;;;;;;10.10;6.65;;;;;;;11.87;68.51;102142.19;4425706;32;20054;-73
2021/05/30 04:34:12;;;;;;;14.27;6.68;;;;;;;11.92;68.45;102142.56;4427073;32;20057;-73
2021/05/30 04:36:38;;;;;;;10.15;6.28;;;;;;;12.01;68.07;102136.47;4426357;32;20068;-74
2021/05/30 04:39:04;;;;;;;9.40;5.43;;;;;;;11.99;68.20;102136.06;4421503;32;20054;-74
2021/05/30 04:41:30;;;;;;;12.45;6.35;;;;;;;12.16;67.72;102132.31;4419142;32;20101;-73
2021/05/30 04:43:55;;;;;;;11.52;5.85;;;;;;;12.22;67.45;102129.84;4426461;32;20112;-73
2021/05/30 04:46:21;;;;;;;11.75;6.05;;;;;;;12.26;67.53;102139.06;4426370;32;20467;-73
2021/05/30 04:48:46;;;;;;;9.95;6.03;;;;;;;12.26;67.51;102133.41;4428700;32;20049;-73
2021/05/30 04:51:13;;;;;;;9.30;6.18;;;;;;;12.45;66.87;102144.16;4421362;32;20521;-74
2021/05/30 04:53:41;;;;;;;12.85;6.87;;;;;;;12.56;66.58;102130.72;4428205;32;20483;-73
2021/05/30 04:56:09;;;;;;;10.80;6.10;;;;;;;12.69;66.49;102128.97;4422592;32;20168;-74
2021/05/30 04:58:35;;;;;;;11.50;6.97;;;;;;;12.78;66.22;102138.56;4420409;32;20281;-74
2021/05/30 05:01:02;;;;;;;13.80;7.07;;;;;;;12.96;65.98;102136.34;4426055;32;20119;-74
2021/05/30 05:03:29;;;;;;;12.05;7.93;;;;;;;13.18;65.66;102140.53;4412634;32;20057;-73
2021/05/30 05:05:55;;;;;;;21.27;11.12;;;;;;;13.43;65.14;102137.38;4422242;32;20076;-73
2021/05/30 05:08:21;;;;;;;17.50;10.73;;;;;;;13.61;65.36;102141.56;4411117;32;20053;-73
2021/05/30 05:10:48;;;;;;;24.25;13.68;;;;;;;13.83;65.16;102134.38;4412429;32;20052;-74
2021/05/30 05:13:15;;;;;;;26.25;14.65;;;;;;;13.98;65.58;102130.09;4412304;32;20111;-74
2021/05/30 05:15:44;;;;;;;25.08;14.63;;;;;;;14.26;65.23;102143.00;4420399;32;20081;-73
2021/05/30 05:18:15;;;;;;;21.27;13.60;;;;;;;14.53;64.37;102132.41;4414549;32;20077;-74
2021/05/30 05:20:42;;;;;;;27.30;14.98;;;;;;;14.68;63.96;102136.59;4423174;32;20054;-74
2021/05/30 05:23:07;;;;;;;24.60;13.80;;;;;;;14.67;63.66;102137.81;4425184;32;20564;-73
2021/05/30 05:25:35;;;;;;;25.50;15.02;;;;;;;14.94;63.16;102134.87;4420650;32;20135;-74
2021/05/30 05:28:03;;;;;;;28.40;16.48;;;;;;;14.87;62.95;102137.84;4426876;32;20433;-74
2021/05/30 05:30:29;;;;;;;29.58;16.42;;;;;;;14.87;62.89;102132.97;4427012;32;20044;-73
2021/05/30 05:32:54;;;;;;;31.60;16.67;;;;;;;14.82;63.13;102141.19;4423739;32;20101;-74
2021/05/30 05:35:21;;;;;;;33.75;17.37;;;;;;;14.99;62.48;102131.53;4422532;32;20117;-74
2021/05/30 05:37:46;;;;;;;37.75;18.60;;;;;;;15.02;62.76;102133.50;4421413;32;20100;-74
2021/05/30 05:40:13;;;;;;;32.15;18.45;;;;;;;15.14;61.93;102127.16;4426659;32;20053;-73
2021/05/30 05:42:38;;;;;;;37.53;19.45;;;;;;;15.21;61.78;102135.53;4426078;32;20411;-73
2021/05/30 05:45:14;;;;;;;37.22;18.80;;;;;;;14.88;62.39;102134.56;4421538;32;20045;-74
2021/05/30 05:47:42;;;;;;;33.05;18.27;;;;;;;15.02;62.89;102134.31;4427092;32;20129;-74
2021/05/30 05:50:10;;;;;;;31.35;18.67;;;;;;;15.19;62.33;102138.81;4417357;32;20132;-74
2021/05/30 05:52:36;;;;;;;40.88;20.15;;;;;;;15.40;61.73;102135.53;4421811;32;20068;-74
2021/05/30 05:55:02;;;;;;;38.08;20.80;;;;;;;15.42;61.55;102141.59;4413812;32;20054;-74
2021/05/30 05:57:29;;;;;;;46.30;21.75;;;;;;;15.69;61.00;102147.06;4424944;32;20088;-74
2021/05/30 05:59:55;;;;;;;45.15;22.45;;;;;;;15.91;60.18;102146.16;4424746;32;20053;-74
2021/05/30 06:02:20;;;;;;;49.28;26.50;;;;;;;16.16;59.50;102139.84;4413344;32;20165;-74
2021/05/30 06:04:46;;;;;;;55.67;28.23;;;;;;;16.27;59.06;102140.41;4424329;32;20042;-74
2021/05/30 06:07:12;;;;;;;58.28;27.17;;;;;;;16.32;58.77;102148.37;4416613;32;20117;-74
2021/05/30 06:09:37;;;;;;;59.00;28.00;;;;;;;16.34;58.80;102145.88;4415285;32;20087;-74
2021/05/30 06:12:04;;;;;;;74.05;31.48;;;;;;;16.37;57.90;102144.19;4419511;32;20080;-74
2021/05/30 06:14:30;;;;;;;60.22;28.05;;;;;;;16.28;58.57;102141.97;4427698;32;20102;-74
2021/05/30 06:16:56;;;;;;;61.42;28.85;;;;;;;16.55;57.42;102134.00;4419982;32;20203;-74
2021/05/30 06:19:21;;;;;;;66.97;29.87;;;;;;;16.53;58.01;102138.53;4425949;32;20450;-74
2021/05/30 06:21:47;;;;;;;76.22;30.98;;;;;;;16.42;58.08;102141.63;4424997;32;20413;-73
2021/05/30 06:24:13;;;;;;;60.95;30.48;;;;;;;16.29;58.06;102140.72;4425730;32;20073;-73
2021/05/30 06:26:39;;;;;;;59.13;29.80;;;;;;;16.15;58.25;102143.13;4427285;32;20049;-74
2021/05/30 06:29:04;;;;;;;63.95;29.65;;;;;;;16.19;58.04;102149.53;4425633;32;20057;-74
2021/05/30 06:31:30;;;;;;;68.57;32.45;;;;;;;15.86;59.02;102148.69;4420359;32;20100;-73
2021/05/30 06:33:55;;;;;;;72.28;32.05;;;;;;;16.08;58.67;102149.00;4420813;32;20520;-74
2021/05/30 06:36:22;;;;;;;76.20;31.87;;;;;;;15.97;59.00;102149.25;4416514;32;20049;-74
2021/05/30 06:38:47;;;;;;;71.32;31.75;;;;;;;15.96;58.87;102141.97;4416505;32;20080;-74
2021/05/30 06:41:13;;;;;;;72.25;33.83;;;;;;;15.93;59.38;102149.31;4412168;32;20054;-74
2021/05/30 06:43:40;;;;;;;75.90;33.10;;;;;;;16.04;59.30;102148.28;4412883;32;20367;-74
2021/05/30 06:46:05;;;;;;;81.55;34.65;;;;;;;16.08;58.28;102146.97;4423024;32;20076;-74
2021/05/30 06:48:31;;;;;;;76.10;34.80;;;;;;;16.01;59.34;102143.50;4429199;32;20053;-74
2021/05/30 06:51:12;;;;;;;74.62;32.75;;;;;;;16.00;58.86;102142.69;4423359;32;20076;-74
2021/05/30 06:53:38;;;;;;;70.87;32.45;;;;;;;15.55;60.33;102142.50;4428300;32;20105;-74
2021/05/30 06:56:04;;;;;;;72.18;32.55;;;;;;;15.56;60.60;102146.16;4429118;32;20076;-74
2021/05/30 06:58:32;;;;;;;69.20;33.88;;;;;;;15.50;60.75;102150.75;4416402;32;20054;-74
2021/05/30 07:00:58;;;;;;;71.70;34.03;;;;;;;15.19;61.55;102141.63;4426037;32;20113;-74
2021/05/30 07:03:24;;;;;;;73.22;33.22;;;;;;;15.46;61.46;102152.84;4426018;32;20430;-74
2021/05/30 07:05:51;;;;;;;68.70;32.78;;;;;;;15.51;60.58;102149.50;4417299;32;20417;-74
2021/05/30 07:08:16;;;;;;;65.22;30.75;;;;;;;15.34;61.33;102145.00;4420772;32;20073;-74
2021/05/30 07:10:42;;;;;;;73.05;31.80;;;;;;;15.63;60.73;102154.50;4423746;32;20399;-74
2021/05/30 07:13:08;;;;;;;59.63;29.55;;;;;;;15.70;60.22;102151.50;4429166;32;20054;-74
2021/05/30 07:15:34;;;;;;;62.35;30.40;;;;;;;15.76;59.60;102155.41;4427073;32;20053;-74
2021/05/30 07:18:00;;;;;;;66.85;30.23;;;;;;;15.89;59.79;102150.66;4418565;32;20572;-73
2021/05/30 07:20:25;;;;;;;66.07;29.15;;;;;;;16.06;58.89;102149.44;4421526;32;20049;-74
2021/05/30 07:22:51;;;;;;;62.65;28.85;;;;;;;16.30;58.07;102150.06;4425246;32;20550;-74
2021/05/30 07:25:17;;;;;;;60.95;28.38;;;;;;;16.58;57.44;102146.53;4430223;32;20062;-74
2021/05/30 07:27:43;;;;;;;49.28;25.92;;;;;;;16.64;56.80;102154.06;4424767;32;20100;-74
2021/05/30 07:30:09;;;;;;;55.12;26.33;;;;;;;16.79;56.57;102148.78;4429639;32;20053;-74
2021/05/30 07:32:35;;;;;;;60.53;27.05;;;;;;;16.89;55.98;102156.22;4427842;32;20054;-73
2021/05/30 07:35:00;;;;;;;59.92;29.02;;;;;;;17.02;55.59;102154.22;4418767;32;20473;-74
2021/05/30 07:37:26;;;;;;;56.17;26.92;;;;;;;16.93;55.75;102156.91;4417986;32;20446;-74
2021/05/30 07:39:52;;;;;;;54.85;27.10;;;;;;;17.03;55.34;102153.78;4420948;32;20092;-74
2021/05/30 07:42:18;;;;;;;57.53;27.40;;;;;;;17.03;54.74;102165.16;4418487;32;20430;-74
2021/05/30 07:44:44;;;;;;;58.58;27.40;;;;;;;16.92;55.82;102153.31;4428589;32;20084;-74
2021/05/30 07:47:09;;;;;;;55.10;26.77;;;;;;;16.94;55.83;102167.06;4428321;32;20075;-74
2021/05/30 07:49:35;;;;;;;56.25;25.73;;;;;;;16.91;56.08;102163.06;4428784;32;20041;-74
2021/05/30 07:52:02;;;;;;;48.35;25.37;;;;;;;16.96;55.31;102162.53;4426651;32;20089;-74
2021/05/30 07:54:27;;;;;;;45.10;23.00;;;;;;;16.73;56.11;102164.81;4417772;32;20057;-74
2021/05/30 07:56:53;;;;;;;48.97;23.05;;;;;;;16.81;55.57;102163.38;4423417;32;20442;-74
2021/05/30 07:59:20;;;;;;;46.60;23.38;;;;;;;16.84;55.83;102162.47;4420216;32;20536;-74
2021/05/30 08:01:46;;;;;;;32.10;17.37;;;;;;;16.95;55.74;102163.78;4409477;32;20058;-74
2021/05/30 08:04:12;;;;;;;25.90;15.07;;;;;;;17.08;54.82;102178.03;4419291;32;20096;-75
2021/05/30 08:06:38;;;;;;;28.67;15.00;;;;;;;17.14;54.37;102177.06;4428625;32;20414;-74
2021/05/30 08:09:04;;;;;;;27.87;16.02;;;;;;;16.92;54.72;102166.72;4428886;32;20075;-75
2021/05/30 08:11:29;;;;;;;31.15;16.17;;;;;;;16.88;55.08;102171.69;4427130;32;20131;-75
2021/05/30 08:13:56;;;;;;;27.48;15.18;;;;;;;17.04;54.05;102171.66;4419045;32;20111;-75
2021/05/30 08:16:22;;;;;;;27.73;14.87;;;;;;;16.95;54.07;102172.31;4417192;32;20449;-75
2021/05/30 08:18:49;;;;;;;32.60;17.02;;;;;;;17.01;53.31;102169.72;4425720;32;20072;-75
2021/05/30 08:21:15;;;;;;;36.05;19.15;;;;;;;16.93;54.46;102171.12;4412528;32;20058;-75
2021/05/30 08:23:42;;;;;;;36.47;18.42;;;;;;;17.03;54.02;102172.91;4413392;32;20074;-75
2021/05/30 08:26:09;;;;;;;41.67;20.12;;;;;;;17.00;53.78;102174.59;4423330;32;20091;-74
2021/05/30 08:28:36;;;;;;;46.60;21.85;;;;;;;16.97;53.61;102166.19;4428977;32;20437;-75
2021/05/30 08:31:02;;;;;;;54.05;23.77;;;;;;;17.05;53.44;102170.41;4417563;32;20088;-75
2021/05/30 08:33:29;;;;;;;53.90;24.65;;;;;;;16.97;53.55;102172.63;4418094;32;20058;-72
2021/05/30 08:35:55;;;;;;;55.20;23.27;;;;;;;16.97;53.79;102172.63;4428582;32;20069;-74
2021/05/30 08:38:22;;;;;;;52.13;23.30;;;;;;;17.06;53.39;102172.03;4426528;32;20084;-74
2021/05/30 08:40:49;;;;;;;52.58;24.95;;;;;;;17.30;52.92;102174.12;4413409;32;20061;-74
2021/05/30 08:43:15;;;;;;;50.17;22.50;;;;;;;17.49;52.81;102178.09;4411833;32;20111;-74
2021/05/30 08:45:42;;;;;;;51.85;25.05;;;;;;;17.85;51.37;102173.72;4416743;32;20737;-74
2021/05/30 08:48:08;;;;;;;55.80;23.45;;;;;;;18.06;50.64;102165.72;4427419;32;20041;-74
2021/05/30 08:50:34;;;;;;;55.47;24.10;;;;;;;18.19;50.03;102169.41;4425167;32;20080;-74
2021/05/30 08:53:00;;;;;;;56.50;23.92;;;;;;;18.41;49.74;102170.31;4424479;32;20054;-74
2021/05/30 08:55:25;;;;;;;52.53;24.73;;;;;;;18.59;47.96;102161.97;4410868;32;20049;-74
2021/05/30 08:57:51;;;;;;;60.80;26.77;;;;;;;19.04;47.53;102170.91;4426436;32;20077;-74
2021/05/30 09:00:23;;;;;;;59.88;27.90;;;;;;;19.26;46.78;102164.00;4419858;32;20191;-74
2021/05/30 09:03:09;;;;;;;54.53;26.55;;;;;;;19.49;46.46;102168.44;4411823;32;20438;-74
2021/05/30 09:05:35;;;;;;;56.90;26.62;;;;;;;19.80;46.12;102167.19;4427209;32;20033;-75
2021/05/30 09:08:01;;;;;;;56.88;27.58;;;;;;;19.97;45.35;102164.12;4424521;32;20466;-75
2021/05/30 09:10:29;;;;;;;62.62;28.58;;;;;;;20.22;44.94;102164.69;4425249;32;20057;-74
2021/05/30 09:18:39;;;;;;;66.87;32.55;;;;;;;21.15;42.99;102163.13;3989501;32;15023983;-73
2021/05/30 09:21:09;;;;;;;63.67;30.92;;;;;;;21.32;42.67;102162.31;4427491;32;20037;-72
2021/05/30 09:26:17;;;;;;;64.10;31.98;;;;;;;21.72;41.75;102161.28;3979331;32;15021505;-72
2021/05/30 09:31:58;;;;;;;77.32;34.15;;;;;;;21.58;41.81;102151.28;3983041;32;15024612;-73
2021/05/30 09:34:25;;;;;;;;;;;;;;;21.43;41.88;102161.81;4428939;32;20431;-74
2021/05/30 09:36:52;;;;;;;62.10;31.17;;;;;;;21.47;41.90;102163.25;4424870;32;19987;-72
2021/05/30 09:39:33;;;;;;;59.78;31.08;;;;;;;21.61;41.71;102159.72;4431630;32;20393;-72
2021/05/30 09:42:20;;;;;;;63.20;31.65;;;;;;;21.56;41.80;102166.09;4436284;32;20049;-74
2021/05/30 09:44:55;;;;;;;63.60;34.05;;;;;;;21.24;42.37;102163.13;4439455;32;20041;-74
2021/05/30 09:47:45;;;;;;;67.10;33.05;;;;;;;20.91;42.77;102154.34;4438341;32;20143;-74
2021/05/30 09:50:13;;;;;;;61.05;32.40;;;;;;;20.90;43.20;102157.69;4422871;32;20378;-74
2021/05/30 09:58:16;;;;;;;57.75;30.67;;;;;;;21.09;43.08;102147.88;3990324;32;15029567;-72
2021/05/30 10:00:44;;;;;;;48.13;24.92;;;;;;;21.09;43.08;102147.88;4438531;32;20089;-73
2021/05/30 10:03:10;;;;;;;47.25;25.25;;;;;;;21.02;42.56;102153.91;4429390;32;20034;-72
2021/05/30 10:05:37;;;;;;;42.20;24.20;;;;;;;21.41;41.55;102148.00;4432491;32;20053;-74
2021/05/30 10:08:04;;;;;;;38.67;22.33;;;;;;;21.83;40.31;102141.53;4434155;32;20444;-73
2021/05/30 10:10:32;;;;;;;40.38;22.48;;;;;;;22.39;39.29;102150.19;4435409;32;20403;-74
2021/05/30 10:13:01;;;;;;;42.75;24.12;;;;;;;22.31;39.05;102146.91;4433693;32;20081;-74
2021/05/30 10:15:26;;;;;;;42.80;24.05;;;;;;;22.90;38.59;102142.22;4425927;32;20488;-74
2021/05/30 10:17:54;;;;;;;42.80;23.02;;;;;;;23.17;37.66;102137.00;4439872;32;20045;-74
2021/05/30 10:20:23;;;;;;;38.53;22.80;;;;;;;23.18;37.33;102135.75;4437604;32;20078;-74
2021/05/30 10:22:57;;;;;;;38.65;21.10;;;;;;;23.83;36.29;102137.47;4439488;32;20396;-75
2021/05/30 10:25:28;;;;;;;34.10;21.20;;;;;;;24.54;35.06;102137.78;4440306;32;20060;-74
2021/05/30 10:31:11;;;;;;;45.75;28.52;;;;;;;26.18;32.51;102137.25;3960726;32;15725514;-74
2021/05/30 10:33:37;;;;;;;36.78;21.77;;;;;;;26.18;32.51;102137.25;4422904;32;20432;-74
2021/05/30 10:36:12;;;;;;;32.17;20.48;;;;;;;26.05;32.15;102138.97;4427672;32;20049;-74
2021/05/30 10:38:42;;;;;;;37.22;22.20;;;;;;;26.37;31.58;102132.63;4438251;32;20638;-72
2021/05/30 10:41:17;;;;;;;35.78;21.83;;;;;;;26.59;31.02;102129.06;4431407;32;20054;-72
2021/05/30 10:43:46;;;;;;;33.42;21.52;;;;;;;26.18;31.54;102125.69;4423228;32;20037;-73
2021/05/30 10:46:13;;;;;;;33.88;21.90;;;;;;;26.10;31.67;102126.66;4437830;32;20137;-72
2021/05/30 10:48:41;;;;;;;30.70;20.90;;;;;;;25.52;32.91;102121.47;4439997;32;20110;-72
2021/05/30 10:56:31;;;;;;;29.45;19.10;;;;;;;27.86;29.61;102127.38;3988830;32;15024049;-73
2021/05/30 11:01:44;;;;;;;40.40;22.00;;;;;;;27.42;29.89;102112.06;3975153;32;15026673;-73
2021/05/30 11:12:33;;;;;;;27.50;17.80;;;;;;;28.33;28.70;102113.88;4003806;31;15017230;-73
2021/05/30 11:15:20;;;;;;;24.45;16.20;;;;;;;28.33;28.70;102113.88;4456395;32;20135;-73
2021/05/30 11:20:25;;;;;;;23.48;15.93;;;;;;;29.07;28.03;102111.00;3989498;32;15021604;-72
2021/05/30 11:28:10;;;;;;;20.42;14.27;;;;;;;30.13;26.14;102100.94;3991298;32;15021936;-72
2021/05/30 11:35:59;;;;;;;18.10;12.43;;;;;;;31.02;24.21;102101.50;3996615;31;15019821;-73
2021/05/30 11:38:36;;;;;;;16.92;11.23;;;;;;;30.84;24.92;102097.22;4446771;32;20071;-74
2021/05/30 11:44:06;;;;;;;16.60;11.38;;;;;;;31.32;24.33;102092.62;3988414;32;15021849;-73
2021/05/30 11:46:35;;;;;;;15.13;11.77;;;;;;;31.32;24.33;102092.62;4439073;32;20403;-73
2021/05/30 11:52:00;;;;;;;16.75;11.98;;;;;;;31.25;24.12;102081.56;3955126;32;15722503;-72
2021/05/30 11:54:34;;;;;;;13.77;10.63;;;;;;;31.25;24.12;102081.56;4423914;32;20184;-73
2021/05/30 11:57:03;;;;;;;14.63;10.40;;;;;;;31.26;24.22;102078.13;4435079;32;20045;-73
2021/05/30 11:59:32;;;;;;;15.90;10.75;;;;;;;31.58;24.25;102086.91;4440230;32;20086;-74
2021/05/30 12:01:59;;;;;;;13.45;10.15;;;;;;;32.08;23.29;102081.00;4415181;32;20707;-74
2021/05/30 12:04:29;;;;;;;15.38;10.75;;;;;;;32.35;23.15;102083.41;4422529;32;20029;-74
2021/05/30 12:06:55;;;;;;;13.98;9.73;;;;;;;32.61;22.72;102080.47;4424462;32;20053;-73
2021/05/30 12:09:21;;;;;;;13.77;10.02;;;;;;;32.44;22.96;102082.19;4425205;32;20114;-74